sensor_id;sensor_type;location;lat;lon;timestamp;P1;durP1;ratioP1;P2;durP2;ratioP2
6852;SDS011;3465;42.144;24.722;2023-04-03T00:01:00;3.87;;;1.50;;
6852;SDS011;3465;42.144;24.722;2023-04-03T00:03:27;2.77;;;1.50;;
6852;SDS011;3465;42.144;24.722;2023-04-03T00:05:52;2.63;;;1.53;;
6852;SDS011;3465;42.144;24.722;2023-04-03T00:08:18;2.93;;;1.70;;
6852;SDS011;3465;42.144;24.722;2023-04-03T00:10:44;2.17;;;1.70;;
6852;SDS011;3465;42.144;24.722;2023-04-03T00:13:09;65.70;;;8.73;;
6852;SDS011;3465;42.144;24.722;2023-04-03T00:15:36;13.87;;;3.10;;
6852;SDS011;3465;42.144;24.722;2023-04-03T00:18:03;3.67;;;1.97;;
6852;SDS011;3465;42.144;24.722;2023-04-03T00:20:30;2.80;;;1.50;;
6852;SDS011;3465;42.144;24.722;2023-04-03T00:22:56;3.30;;;1.70;;
6852;SDS011;3465;42.144;24.722;2023-04-03T00:25:21;1.87;;;1.43;;
6852;SDS011;3465;42.144;24.722;2023-04-03T00:27:47;4.60;;;2.00;;
6852;SDS011;3465;42.144;24.722;2023-04-03T00:30:16;6.67;;;1.63;;
6852;SDS011;3465;42.144;24.722;2023-04-03T00:32:43;2.20;;;1.70;;
6852;SDS011;3465;42.144;24.722;2023-04-03T00:35:08;2.30;;;1.50;;
6852;SDS011;3465;42.144;24.722;2023-04-03T00:37:34;2.53;;;1.50;;
6852;SDS011;3465;42.144;24.722;2023-04-03T00:39:59;2.23;;;1.70;;
6852;SDS011;3465;42.144;24.722;2023-04-03T00:42:24;2.63;;;1.57;;
6852;SDS011;3465;42.144;24.722;2023-04-03T00:47:41;2.33;;;1.67;;
6852;SDS011;3465;42.144;24.722;2023-04-03T00:50:07;2.70;;;1.73;;
6852;SDS011;3465;42.144;24.722;2023-04-03T00:52:33;2.47;;;1.50;;
6852;SDS011;3465;42.144;24.722;2023-04-03T00:55:01;2.07;;;1.67;;
6852;SDS011;3465;42.144;24.722;2023-04-03T00:57:29;2.37;;;1.70;;
6852;SDS011;3465;42.144;24.722;2023-04-03T00:59:57;2.70;;;1.60;;
6852;SDS011;3465;42.144;24.722;2023-04-03T01:02:29;2.33;;;1.73;;
6852;SDS011;3465;42.144;24.722;2023-04-03T01:04:54;2.00;;;1.53;;
6852;SDS011;3465;42.144;24.722;2023-04-03T01:07:24;1.97;;;1.43;;
6852;SDS011;3465;42.144;24.722;2023-04-03T01:09:53;2.07;;;1.40;;
6852;SDS011;3465;42.144;24.722;2023-04-03T01:14:50;1.70;;;1.40;;
6852;SDS011;3465;42.144;24.722;2023-04-03T01:22:40;4.13;;;1.60;;
6852;SDS011;3465;42.144;24.722;2023-04-03T01:25:22;2.03;;;1.60;;
6852;SDS011;3465;42.144;24.722;2023-04-03T01:27:48;2.23;;;1.60;;
6852;SDS011;3465;42.144;24.722;2023-04-03T01:30:14;2.43;;;1.70;;
6852;SDS011;3465;42.144;24.722;2023-04-03T01:32:42;3.00;;;1.70;;
6852;SDS011;3465;42.144;24.722;2023-04-03T01:35:08;2.17;;;1.60;;
6852;SDS011;3465;42.144;24.722;2023-04-03T01:37:34;2.17;;;1.70;;
6852;SDS011;3465;42.144;24.722;2023-04-03T01:40:00;2.80;;;1.63;;
6852;SDS011;3465;42.144;24.722;2023-04-03T01:42:25;1.77;;;1.40;;
6852;SDS011;3465;42.144;24.722;2023-04-03T01:44:50;3.60;;;1.50;;
6852;SDS011;3465;42.144;24.722;2023-04-03T01:47:16;2.70;;;1.77;;
6852;SDS011;3465;42.144;24.722;2023-04-03T01:49:41;3.10;;;1.60;;
6852;SDS011;3465;42.144;24.722;2023-04-03T01:52:07;2.37;;;1.70;;
6852;SDS011;3465;42.144;24.722;2023-04-03T01:54:32;3.33;;;1.70;;
6852;SDS011;3465;42.144;24.722;2023-04-03T01:56:57;3.97;;;1.87;;
6852;SDS011;3465;42.144;24.722;2023-04-03T01:59:23;2.40;;;1.50;;
6852;SDS011;3465;42.144;24.722;2023-04-03T02:01:48;2.33;;;1.70;;
6852;SDS011;3465;42.144;24.722;2023-04-03T02:04:14;4.83;;;1.80;;
6852;SDS011;3465;42.144;24.722;2023-04-03T02:06:40;2.33;;;1.70;;
6852;SDS011;3465;42.144;24.722;2023-04-03T02:09:05;2.50;;;1.60;;
6852;SDS011;3465;42.144;24.722;2023-04-03T02:11:31;3.70;;;2.20;;
6852;SDS011;3465;42.144;24.722;2023-04-03T02:13:56;2.83;;;2.07;;
6852;SDS011;3465;42.144;24.722;2023-04-03T02:16:21;6.20;;;2.10;;
6852;SDS011;3465;42.144;24.722;2023-04-03T02:18:47;3.97;;;2.03;;
6852;SDS011;3465;42.144;24.722;2023-04-03T02:21:12;2.77;;;1.80;;
6852;SDS011;3465;42.144;24.722;2023-04-03T02:23:38;3.70;;;2.20;;
6852;SDS011;3465;42.144;24.722;2023-04-03T02:26:13;3.60;;;1.90;;
6852;SDS011;3465;42.144;24.722;2023-04-03T02:28:40;4.40;;;2.00;;
6852;SDS011;3465;42.144;24.722;2023-04-03T02:31:06;4.30;;;2.00;;
6852;SDS011;3465;42.144;24.722;2023-04-03T02:33:32;3.13;;;1.90;;
6852;SDS011;3465;42.144;24.722;2023-04-03T02:35:58;5.87;;;2.00;;
6852;SDS011;3465;42.144;24.722;2023-04-03T02:38:24;4.87;;;2.13;;
6852;SDS011;3465;42.144;24.722;2023-04-03T02:40:50;4.70;;;1.90;;
6852;SDS011;3465;42.144;24.722;2023-04-03T02:43:16;4.03;;;1.80;;
6852;SDS011;3465;42.144;24.722;2023-04-03T02:45:42;2.57;;;1.90;;
6852;SDS011;3465;42.144;24.722;2023-04-03T02:48:08;3.03;;;2.07;;
6852;SDS011;3465;42.144;24.722;2023-04-03T02:50:33;5.60;;;2.30;;
6852;SDS011;3465;42.144;24.722;2023-04-03T02:52:58;3.90;;;1.73;;
6852;SDS011;3465;42.144;24.722;2023-04-03T02:55:24;5.20;;;2.37;;
6852;SDS011;3465;42.144;24.722;2023-04-03T02:57:50;3.90;;;2.10;;
6852;SDS011;3465;42.144;24.722;2023-04-03T03:00:15;7.80;;;2.53;;
6852;SDS011;3465;42.144;24.722;2023-04-03T03:02:41;5.87;;;2.47;;
6852;SDS011;3465;42.144;24.722;2023-04-03T03:05:06;3.80;;;2.20;;
6852;SDS011;3465;42.144;24.722;2023-04-03T03:07:32;3.30;;;2.10;;
6852;SDS011;3465;42.144;24.722;2023-04-03T03:09:58;3.27;;;2.20;;
6852;SDS011;3465;42.144;24.722;2023-04-03T03:12:23;6.57;;;2.30;;
6852;SDS011;3465;42.144;24.722;2023-04-03T03:14:49;5.33;;;2.27;;
6852;SDS011;3465;42.144;24.722;2023-04-03T03:17:15;3.67;;;2.20;;
6852;SDS011;3465;42.144;24.722;2023-04-03T03:19:41;3.90;;;2.10;;
6852;SDS011;3465;42.144;24.722;2023-04-03T03:22:07;9.33;;;2.30;;
6852;SDS011;3465;42.144;24.722;2023-04-03T03:24:32;3.23;;;2.37;;
6852;SDS011;3465;42.144;24.722;2023-04-03T03:26:57;4.43;;;2.23;;
6852;SDS011;3465;42.144;24.722;2023-04-03T03:29:23;5.13;;;2.40;;
6852;SDS011;3465;42.144;24.722;2023-04-03T03:31:48;9.47;;;3.00;;
6852;SDS011;3465;42.144;24.722;2023-04-03T03:34:14;10.30;;;2.90;;
6852;SDS011;3465;42.144;24.722;2023-04-03T03:36:39;6.53;;;2.60;;
6852;SDS011;3465;42.144;24.722;2023-04-03T03:39:06;8.27;;;2.70;;
6852;SDS011;3465;42.144;24.722;2023-04-03T03:41:32;12.30;;;3.03;;
6852;SDS011;3465;42.144;24.722;2023-04-03T03:43:57;6.63;;;2.70;;
6852;SDS011;3465;42.144;24.722;2023-04-03T03:46:22;5.63;;;2.93;;
6852;SDS011;3465;42.144;24.722;2023-04-03T03:48:48;7.60;;;2.47;;
6852;SDS011;3465;42.144;24.722;2023-04-03T03:51:14;3.77;;;2.47;;
6852;SDS011;3465;42.144;24.722;2023-04-03T03:53:40;13.87;;;6.17;;
6852;SDS011;3465;42.144;24.722;2023-04-03T03:56:05;8.17;;;3.87;;
6852;SDS011;3465;42.144;24.722;2023-04-03T03:58:31;9.00;;;4.07;;
6852;SDS011;3465;42.144;24.722;2023-04-03T04:01:00;22.77;;;5.07;;
6852;SDS011;3465;42.144;24.722;2023-04-03T04:03:26;18.80;;;4.67;;
6852;SDS011;3465;42.144;24.722;2023-04-03T04:05:53;14.33;;;4.13;;
6852;SDS011;3465;42.144;24.722;2023-04-03T04:08:18;15.93;;;4.63;;
6852;SDS011;3465;42.144;24.722;2023-04-03T04:10:43;8.60;;;4.03;;
6852;SDS011;3465;42.144;24.722;2023-04-03T04:13:09;12.23;;;4.30;;
6852;SDS011;3465;42.144;24.722;2023-04-03T04:15:34;13.83;;;3.97;;
6852;SDS011;3465;42.144;24.722;2023-04-03T04:18:00;8.30;;;4.10;;
6852;SDS011;3465;42.144;24.722;2023-04-03T04:20:25;8.93;;;4.43;;
6852;SDS011;3465;42.144;24.722;2023-04-03T04:22:51;14.63;;;4.03;;
6852;SDS011;3465;42.144;24.722;2023-04-03T04:25:16;10.23;;;4.53;;
6852;SDS011;3465;42.144;24.722;2023-04-03T04:27:41;11.20;;;4.73;;
6852;SDS011;3465;42.144;24.722;2023-04-03T04:30:07;12.33;;;4.60;;
6852;SDS011;3465;42.144;24.722;2023-04-03T04:32:33;23.83;;;5.27;;
6852;SDS011;3465;42.144;24.722;2023-04-03T04:34:58;12.80;;;5.00;;
6852;SDS011;3465;42.144;24.722;2023-04-03T04:37:24;12.40;;;5.37;;
6852;SDS011;3465;42.144;24.722;2023-04-03T04:39:49;16.57;;;6.07;;
6852;SDS011;3465;42.144;24.722;2023-04-03T04:42:15;16.83;;;5.37;;
6852;SDS011;3465;42.144;24.722;2023-04-03T04:44:40;16.53;;;5.53;;
6852;SDS011;3465;42.144;24.722;2023-04-03T04:47:06;14.73;;;5.73;;
6852;SDS011;3465;42.144;24.722;2023-04-03T04:49:31;11.47;;;4.30;;
6852;SDS011;3465;42.144;24.722;2023-04-03T04:51:57;11.43;;;4.37;;
6852;SDS011;3465;42.144;24.722;2023-04-03T04:54:22;12.33;;;4.20;;
6852;SDS011;3465;42.144;24.722;2023-04-03T04:56:47;17.33;;;5.00;;
6852;SDS011;3465;42.144;24.722;2023-04-03T04:59:13;16.43;;;4.90;;
6852;SDS011;3465;42.144;24.722;2023-04-03T05:01:38;9.73;;;4.53;;
6852;SDS011;3465;42.144;24.722;2023-04-03T05:04:06;9.90;;;3.93;;
6852;SDS011;3465;42.144;24.722;2023-04-03T05:06:32;8.83;;;4.27;;
6852;SDS011;3465;42.144;24.722;2023-04-03T05:08:58;7.97;;;4.33;;
6852;SDS011;3465;42.144;24.722;2023-04-03T05:11:24;12.10;;;5.23;;
6852;SDS011;3465;42.144;24.722;2023-04-03T05:13:50;18.83;;;5.53;;
6852;SDS011;3465;42.144;24.722;2023-04-03T05:16:16;17.73;;;5.30;;
6852;SDS011;3465;42.144;24.722;2023-04-03T05:18:41;36.17;;;7.33;;
6852;SDS011;3465;42.144;24.722;2023-04-03T05:21:06;52.03;;;7.60;;
6852;SDS011;3465;42.144;24.722;2023-04-03T05:23:32;51.30;;;7.37;;
6852;SDS011;3465;42.144;24.722;2023-04-03T05:25:57;51.67;;;7.93;;
6852;SDS011;3465;42.144;24.722;2023-04-03T05:28:23;42.83;;;7.40;;
6852;SDS011;3465;42.144;24.722;2023-04-03T05:30:55;29.97;;;8.10;;
6852;SDS011;3465;42.144;24.722;2023-04-03T05:33:21;25.67;;;7.13;;
6852;SDS011;3465;42.144;24.722;2023-04-03T05:35:48;24.93;;;7.77;;
6852;SDS011;3465;42.144;24.722;2023-04-03T05:38:13;23.90;;;7.23;;
6852;SDS011;3465;42.144;24.722;2023-04-03T05:40:38;33.90;;;7.03;;
6852;SDS011;3465;42.144;24.722;2023-04-03T05:43:04;19.00;;;5.93;;
6852;SDS011;3465;42.144;24.722;2023-04-03T05:45:30;31.20;;;6.17;;
6852;SDS011;3465;42.144;24.722;2023-04-03T05:47:55;18.03;;;4.90;;
6852;SDS011;3465;42.144;24.722;2023-04-03T05:50:21;10.70;;;4.10;;
6852;SDS011;3465;42.144;24.722;2023-04-03T05:52:46;17.80;;;4.67;;
6852;SDS011;3465;42.144;24.722;2023-04-03T05:55:15;12.77;;;4.80;;
6852;SDS011;3465;42.144;24.722;2023-04-03T05:57:41;15.87;;;4.87;;
6852;SDS011;3465;42.144;24.722;2023-04-03T06:00:07;12.00;;;4.37;;
6852;SDS011;3465;42.144;24.722;2023-04-03T06:02:37;10.93;;;4.33;;
6852;SDS011;3465;42.144;24.722;2023-04-03T06:05:03;11.70;;;4.60;;
6852;SDS011;3465;42.144;24.722;2023-04-03T06:07:29;16.03;;;4.90;;
6852;SDS011;3465;42.144;24.722;2023-04-03T06:09:55;17.47;;;5.80;;
6852;SDS011;3465;42.144;24.722;2023-04-03T06:12:22;16.87;;;5.10;;
6852;SDS011;3465;42.144;24.722;2023-04-03T06:14:47;11.70;;;5.20;;
6852;SDS011;3465;42.144;24.722;2023-04-03T06:17:16;9.67;;;4.50;;
6852;SDS011;3465;42.144;24.722;2023-04-03T06:19:43;11.70;;;4.07;;
6852;SDS011;3465;42.144;24.722;2023-04-03T06:22:09;12.87;;;4.47;;
6852;SDS011;3465;42.144;24.722;2023-04-03T06:24:36;12.23;;;4.57;;
6852;SDS011;3465;42.144;24.722;2023-04-03T06:27:02;11.97;;;4.17;;
6852;SDS011;3465;42.144;24.722;2023-04-03T06:29:27;18.67;;;6.30;;
6852;SDS011;3465;42.144;24.722;2023-04-03T06:31:53;13.07;;;5.93;;
6852;SDS011;3465;42.144;24.722;2023-04-03T06:34:18;10.33;;;5.57;;
6852;SDS011;3465;42.144;24.722;2023-04-03T06:36:44;16.97;;;6.80;;
6852;SDS011;3465;42.144;24.722;2023-04-03T06:39:13;9.90;;;5.00;;
6852;SDS011;3465;42.144;24.722;2023-04-03T06:41:40;9.77;;;5.00;;
6852;SDS011;3465;42.144;24.722;2023-04-03T06:44:06;37.00;;;18.63;;
6852;SDS011;3465;42.144;24.722;2023-04-03T06:46:36;15.33;;;7.37;;
6852;SDS011;3465;42.144;24.722;2023-04-03T06:49:02;14.37;;;5.97;;
6852;SDS011;3465;42.144;24.722;2023-04-03T06:51:29;11.70;;;5.43;;
6852;SDS011;3465;42.144;24.722;2023-04-03T06:53:56;12.13;;;4.60;;
6852;SDS011;3465;42.144;24.722;2023-04-03T06:56:23;9.10;;;3.30;;
6852;SDS011;3465;42.144;24.722;2023-04-03T06:58:50;6.47;;;2.83;;
6852;SDS011;3465;42.144;24.722;2023-04-03T07:01:17;5.77;;;3.10;;
6852;SDS011;3465;42.144;24.722;2023-04-03T07:03:46;6.33;;;3.07;;
6852;SDS011;3465;42.144;24.722;2023-04-03T07:06:13;10.40;;;3.77;;
6852;SDS011;3465;42.144;24.722;2023-04-03T07:08:40;8.67;;;3.20;;
6852;SDS011;3465;42.144;24.722;2023-04-03T07:11:07;8.57;;;3.47;;
6852;SDS011;3465;42.144;24.722;2023-04-03T07:13:33;8.77;;;3.40;;
6852;SDS011;3465;42.144;24.722;2023-04-03T07:15:59;9.30;;;3.00;;
6852;SDS011;3465;42.144;24.722;2023-04-03T07:18:25;7.63;;;3.17;;
6852;SDS011;3465;42.144;24.722;2023-04-03T07:20:51;5.83;;;3.30;;
6852;SDS011;3465;42.144;24.722;2023-04-03T07:23:17;7.53;;;4.17;;
6852;SDS011;3465;42.144;24.722;2023-04-03T07:25:44;5.73;;;3.53;;
6852;SDS011;3465;42.144;24.722;2023-04-03T07:28:11;6.27;;;3.50;;
6852;SDS011;3465;42.144;24.722;2023-04-03T07:30:43;5.37;;;2.77;;
6852;SDS011;3465;42.144;24.722;2023-04-03T07:33:14;12.73;;;3.43;;
6852;SDS011;3465;42.144;24.722;2023-04-03T07:35:41;6.47;;;2.60;;
6852;SDS011;3465;42.144;24.722;2023-04-03T07:38:07;5.80;;;2.90;;
6852;SDS011;3465;42.144;24.722;2023-04-03T07:40:33;10.33;;;2.67;;
6852;SDS011;3465;42.144;24.722;2023-04-03T07:42:59;5.90;;;2.40;;
6852;SDS011;3465;42.144;24.722;2023-04-03T07:45:25;4.47;;;2.80;;
6852;SDS011;3465;42.144;24.722;2023-04-03T07:47:51;7.03;;;3.00;;
6852;SDS011;3465;42.144;24.722;2023-04-03T07:50:17;6.13;;;3.13;;
6852;SDS011;3465;42.144;24.722;2023-04-03T07:52:42;5.63;;;2.73;;
6852;SDS011;3465;42.144;24.722;2023-04-03T07:55:08;6.97;;;3.50;;
6852;SDS011;3465;42.144;24.722;2023-04-03T07:57:34;5.17;;;2.80;;
6852;SDS011;3465;42.144;24.722;2023-04-03T08:00:00;5.60;;;2.93;;
6852;SDS011;3465;42.144;24.722;2023-04-03T08:02:25;10.10;;;2.70;;
6852;SDS011;3465;42.144;24.722;2023-04-03T08:04:51;5.70;;;2.77;;
6852;SDS011;3465;42.144;24.722;2023-04-03T08:07:17;2.80;;;2.13;;
6852;SDS011;3465;42.144;24.722;2023-04-03T08:09:42;8.17;;;4.50;;
6852;SDS011;3465;42.144;24.722;2023-04-03T08:12:09;6.13;;;2.67;;
6852;SDS011;3465;42.144;24.722;2023-04-03T08:14:36;4.57;;;2.30;;
6852;SDS011;3465;42.144;24.722;2023-04-03T08:17:02;3.43;;;2.30;;
6852;SDS011;3465;42.144;24.722;2023-04-03T08:19:31;5.07;;;2.40;;
6852;SDS011;3465;42.144;24.722;2023-04-03T08:21:56;6.47;;;1.93;;
6852;SDS011;3465;42.144;24.722;2023-04-03T08:24:23;6.27;;;2.80;;
6852;SDS011;3465;42.144;24.722;2023-04-03T08:26:49;4.03;;;2.60;;
6852;SDS011;3465;42.144;24.722;2023-04-03T08:29:15;6.17;;;2.57;;
6852;SDS011;3465;42.144;24.722;2023-04-03T08:31:40;4.70;;;2.20;;
6852;SDS011;3465;42.144;24.722;2023-04-03T08:34:06;6.50;;;2.80;;
6852;SDS011;3465;42.144;24.722;2023-04-03T08:36:31;13.60;;;3.00;;
6852;SDS011;3465;42.144;24.722;2023-04-03T08:38:57;6.63;;;3.33;;
6852;SDS011;3465;42.144;24.722;2023-04-03T08:41:35;5.77;;;3.10;;
6852;SDS011;3465;42.144;24.722;2023-04-03T08:49:43;13.00;;;4.73;;
6852;SDS011;3465;42.144;24.722;2023-04-03T08:52:15;13.50;;;4.63;;
6852;SDS011;3465;42.144;24.722;2023-04-03T08:57:39;11.20;;;4.40;;
6852;SDS011;3465;42.144;24.722;2023-04-03T09:00:19;10.20;;;4.77;;
6852;SDS011;3465;42.144;24.722;2023-04-03T09:02:48;9.63;;;4.17;;
6852;SDS011;3465;42.144;24.722;2023-04-03T09:05:19;11.90;;;4.43;;
6852;SDS011;3465;42.144;24.722;2023-04-03T09:08:06;8.43;;;3.97;;
6852;SDS011;3465;42.144;24.722;2023-04-03T09:10:39;13.17;;;3.60;;
6852;SDS011;3465;42.144;24.722;2023-04-03T09:16:20;6.10;;;3.27;;
6852;SDS011;3465;42.144;24.722;2023-04-03T09:18:56;5.83;;;3.40;;
6852;SDS011;3465;42.144;24.722;2023-04-03T09:21:32;5.93;;;3.80;;
6852;SDS011;3465;42.144;24.722;2023-04-03T09:24:02;8.03;;;3.73;;
6852;SDS011;3465;42.144;24.722;2023-04-03T09:29:07;10.03;;;3.37;;
6852;SDS011;3465;42.144;24.722;2023-04-03T09:31:40;7.30;;;3.60;;
6852;SDS011;3465;42.144;24.722;2023-04-03T09:34:20;7.97;;;3.50;;
6852;SDS011;3465;42.144;24.722;2023-04-03T09:36:49;19.07;;;4.90;;
6852;SDS011;3465;42.144;24.722;2023-04-03T09:39:20;8.73;;;3.70;;
6852;SDS011;3465;42.144;24.722;2023-04-03T09:42:03;5.23;;;3.07;;
6852;SDS011;3465;42.144;24.722;2023-04-03T09:44:37;11.00;;;2.60;;
6852;SDS011;3465;42.144;24.722;2023-04-03T09:47:21;4.83;;;2.50;;
6852;SDS011;3465;42.144;24.722;2023-04-03T09:49:50;5.97;;;2.23;;
6852;SDS011;3465;42.144;24.722;2023-04-03T09:52:26;4.77;;;2.70;;
6852;SDS011;3465;42.144;24.722;2023-04-03T09:54:51;5.57;;;2.40;;
6852;SDS011;3465;42.144;24.722;2023-04-03T09:57:17;7.00;;;2.47;;
6852;SDS011;3465;42.144;24.722;2023-04-03T09:59:45;11.10;;;3.23;;
6852;SDS011;3465;42.144;24.722;2023-04-03T10:05:01;13.23;;;2.70;;
6852;SDS011;3465;42.144;24.722;2023-04-03T10:07:29;6.80;;;2.70;;
6852;SDS011;3465;42.144;24.722;2023-04-03T10:10:15;6.63;;;2.50;;
6852;SDS011;3465;42.144;24.722;2023-04-03T10:12:47;5.50;;;2.60;;
6852;SDS011;3465;42.144;24.722;2023-04-03T10:15:14;6.37;;;1.90;;
6852;SDS011;3465;42.144;24.722;2023-04-03T10:17:48;4.07;;;2.40;;
6852;SDS011;3465;42.144;24.722;2023-04-03T10:31:13;7.07;;;3.13;;
6852;SDS011;3465;42.144;24.722;2023-04-03T10:47:32;4.60;;;2.60;;
6852;SDS011;3465;42.144;24.722;2023-04-03T10:50:15;4.07;;;2.67;;
6852;SDS011;3465;42.144;24.722;2023-04-03T10:58:43;8.63;;;3.10;;
6852;SDS011;3465;42.144;24.722;2023-04-03T11:01:35;5.57;;;2.90;;
6852;SDS011;3465;42.144;24.722;2023-04-03T11:04:05;5.60;;;2.90;;
6852;SDS011;3465;42.144;24.722;2023-04-03T11:06:35;4.87;;;2.60;;
6852;SDS011;3465;42.144;24.722;2023-04-03T11:09:22;4.20;;;2.77;;
6852;SDS011;3465;42.144;24.722;2023-04-03T11:11:53;5.90;;;2.63;;
6852;SDS011;3465;42.144;24.722;2023-04-03T11:19:43;7.63;;;2.87;;
6852;SDS011;3465;42.144;24.722;2023-04-03T11:22:31;5.93;;;3.00;;
6852;SDS011;3465;42.144;24.722;2023-04-03T11:27:43;5.63;;;3.23;;
6852;SDS011;3465;42.144;24.722;2023-04-03T11:30:15;6.63;;;3.40;;
6852;SDS011;3465;42.144;24.722;2023-04-03T11:32:49;8.53;;;3.43;;
6852;SDS011;3465;42.144;24.722;2023-04-03T11:35:18;4.03;;;2.90;;
6852;SDS011;3465;42.144;24.722;2023-04-03T11:37:46;6.00;;;3.30;;
6852;SDS011;3465;42.144;24.722;2023-04-03T11:42:41;6.70;;;3.30;;
6852;SDS011;3465;42.144;24.722;2023-04-03T11:45:16;4.00;;;3.10;;
6852;SDS011;3465;42.144;24.722;2023-04-03T11:50:56;10.10;;;5.47;;
6852;SDS011;3465;42.144;24.722;2023-04-03T11:58:27;7.27;;;3.93;;
6852;SDS011;3465;42.144;24.722;2023-04-03T12:00:55;9.47;;;3.50;;
6852;SDS011;3465;42.144;24.722;2023-04-03T12:05:49;5.27;;;3.43;;
6852;SDS011;3465;42.144;24.722;2023-04-03T12:13:39;7.77;;;4.60;;
6852;SDS011;3465;42.144;24.722;2023-04-03T12:16:07;7.43;;;4.47;;
6852;SDS011;3465;42.144;24.722;2023-04-03T12:22:05;8.07;;;5.33;;
6852;SDS011;3465;42.144;24.722;2023-04-03T12:46:04;15.87;;;10.27;;
6852;SDS011;3465;42.144;24.722;2023-04-03T12:48:38;9.47;;;5.80;;
6852;SDS011;3465;42.144;24.722;2023-04-03T12:51:13;10.30;;;5.63;;
6852;SDS011;3465;42.144;24.722;2023-04-03T12:53:40;7.70;;;5.20;;
6852;SDS011;3465;42.144;24.722;2023-04-03T12:56:19;10.73;;;5.50;;
6852;SDS011;3465;42.144;24.722;2023-04-03T12:58:48;9.83;;;5.97;;
6852;SDS011;3465;42.144;24.722;2023-04-03T13:01:16;10.43;;;5.17;;
6852;SDS011;3465;42.144;24.722;2023-04-03T13:03:44;9.63;;;5.50;;
6852;SDS011;3465;42.144;24.722;2023-04-03T13:06:21;12.73;;;4.93;;
6852;SDS011;3465;42.144;24.722;2023-04-03T13:08:58;12.73;;;5.17;;
6852;SDS011;3465;42.144;24.722;2023-04-03T13:11:27;7.47;;;5.30;;
6852;SDS011;3465;42.144;24.722;2023-04-03T13:14:19;9.13;;;5.30;;
6852;SDS011;3465;42.144;24.722;2023-04-03T13:16:56;9.33;;;6.00;;
6852;SDS011;3465;42.144;24.722;2023-04-03T13:19:41;9.23;;;5.90;;
6852;SDS011;3465;42.144;24.722;2023-04-03T13:22:10;9.47;;;5.90;;
6852;SDS011;3465;42.144;24.722;2023-04-03T13:24:46;8.03;;;5.50;;
6852;SDS011;3465;42.144;24.722;2023-04-03T13:27:15;9.37;;;5.60;;
6852;SDS011;3465;42.144;24.722;2023-04-03T13:29:41;6.90;;;5.23;;
6852;SDS011;3465;42.144;24.722;2023-04-03T13:32:13;10.23;;;5.80;;
6852;SDS011;3465;42.144;24.722;2023-04-03T13:34:46;10.80;;;6.10;;
6852;SDS011;3465;42.144;24.722;2023-04-03T13:37:28;10.20;;;5.90;;
6852;SDS011;3465;42.144;24.722;2023-04-03T13:40:16;8.90;;;5.60;;
6852;SDS011;3465;42.144;24.722;2023-04-03T13:42:41;9.00;;;5.70;;
6852;SDS011;3465;42.144;24.722;2023-04-03T13:45:11;17.07;;;6.73;;
6852;SDS011;3465;42.144;24.722;2023-04-03T13:47:51;13.80;;;5.83;;
6852;SDS011;3465;42.144;24.722;2023-04-03T13:50:23;9.93;;;6.67;;
6852;SDS011;3465;42.144;24.722;2023-04-03T13:55:31;11.30;;;6.60;;
6852;SDS011;3465;42.144;24.722;2023-04-03T13:58:00;13.47;;;7.20;;
6852;SDS011;3465;42.144;24.722;2023-04-03T14:03:41;13.47;;;7.17;;
6852;SDS011;3465;42.144;24.722;2023-04-03T14:06:13;14.17;;;8.17;;
6852;SDS011;3465;42.144;24.722;2023-04-03T14:08:40;12.23;;;8.00;;
6852;SDS011;3465;42.144;24.722;2023-04-03T14:11:08;13.50;;;8.83;;
6852;SDS011;3465;42.144;24.722;2023-04-03T14:13:38;17.50;;;8.77;;
6852;SDS011;3465;42.144;24.722;2023-04-03T14:16:03;12.70;;;8.70;;
6852;SDS011;3465;42.144;24.722;2023-04-03T14:18:29;13.93;;;8.50;;
6852;SDS011;3465;42.144;24.722;2023-04-03T14:20:54;13.40;;;8.30;;
6852;SDS011;3465;42.144;24.722;2023-04-03T14:23:20;13.47;;;7.93;;
6852;SDS011;3465;42.144;24.722;2023-04-03T14:25:45;12.87;;;8.10;;
6852;SDS011;3465;42.144;24.722;2023-04-03T14:28:15;13.63;;;8.10;;
6852;SDS011;3465;42.144;24.722;2023-04-03T14:30:42;12.30;;;8.30;;
6852;SDS011;3465;42.144;24.722;2023-04-03T14:33:10;11.53;;;7.50;;
6852;SDS011;3465;42.144;24.722;2023-04-03T14:35:40;18.17;;;8.10;;
6852;SDS011;3465;42.144;24.722;2023-04-03T14:38:12;11.70;;;7.63;;
6852;SDS011;3465;42.144;24.722;2023-04-03T14:40:52;16.77;;;9.20;;
6852;SDS011;3465;42.144;24.722;2023-04-03T14:43:19;17.77;;;9.57;;
6852;SDS011;3465;42.144;24.722;2023-04-03T14:45:45;14.93;;;8.40;;
6852;SDS011;3465;42.144;24.722;2023-04-03T14:48:15;14.37;;;8.83;;
6852;SDS011;3465;42.144;24.722;2023-04-03T14:50:47;13.50;;;8.37;;
6852;SDS011;3465;42.144;24.722;2023-04-03T14:53:16;11.07;;;8.07;;
6852;SDS011;3465;42.144;24.722;2023-04-03T14:55:46;13.70;;;8.80;;
6852;SDS011;3465;42.144;24.722;2023-04-03T14:58:13;15.07;;;9.27;;
6852;SDS011;3465;42.144;24.722;2023-04-03T15:00:44;14.17;;;8.60;;
6852;SDS011;3465;42.144;24.722;2023-04-03T15:03:17;14.67;;;8.47;;
6852;SDS011;3465;42.144;24.722;2023-04-03T15:05:46;17.43;;;9.20;;
6852;SDS011;3465;42.144;24.722;2023-04-03T15:08:23;17.40;;;9.53;;
6852;SDS011;3465;42.144;24.722;2023-04-03T15:10:51;12.10;;;8.33;;
6852;SDS011;3465;42.144;24.722;2023-04-03T15:13:20;16.60;;;9.33;;
6852;SDS011;3465;42.144;24.722;2023-04-03T15:15:46;18.03;;;9.07;;
6852;SDS011;3465;42.144;24.722;2023-04-03T15:18:23;16.13;;;9.90;;
6852;SDS011;3465;42.144;24.722;2023-04-03T15:20:51;18.00;;;9.80;;
6852;SDS011;3465;42.144;24.722;2023-04-03T15:23:18;16.63;;;9.43;;
6852;SDS011;3465;42.144;24.722;2023-04-03T15:25:44;17.83;;;9.30;;
6852;SDS011;3465;42.144;24.722;2023-04-03T15:28:28;16.67;;;9.50;;
6852;SDS011;3465;42.144;24.722;2023-04-03T15:30:57;16.63;;;9.40;;
6852;SDS011;3465;42.144;24.722;2023-04-03T15:33:24;19.50;;;9.87;;
6852;SDS011;3465;42.144;24.722;2023-04-03T15:35:50;14.17;;;9.33;;
6852;SDS011;3465;42.144;24.722;2023-04-03T15:38:15;17.00;;;10.73;;
6852;SDS011;3465;42.144;24.722;2023-04-03T15:40:41;17.77;;;10.37;;
6852;SDS011;3465;42.144;24.722;2023-04-03T15:43:07;19.10;;;10.27;;
6852;SDS011;3465;42.144;24.722;2023-04-03T15:45:33;19.60;;;10.03;;
6852;SDS011;3465;42.144;24.722;2023-04-03T15:48:01;18.20;;;10.60;;
6852;SDS011;3465;42.144;24.722;2023-04-03T15:50:28;18.93;;;8.90;;
6852;SDS011;3465;42.144;24.722;2023-04-03T15:52:53;15.27;;;7.00;;
6852;SDS011;3465;42.144;24.722;2023-04-03T15:55:29;16.67;;;7.60;;
6852;SDS011;3465;42.144;24.722;2023-04-03T15:57:57;14.63;;;7.93;;
6852;SDS011;3465;42.144;24.722;2023-04-03T16:00:23;22.03;;;7.37;;
6852;SDS011;3465;42.144;24.722;2023-04-03T16:02:51;13.73;;;6.83;;
6852;SDS011;3465;42.144;24.722;2023-04-03T16:05:26;12.70;;;6.43;;
6852;SDS011;3465;42.144;24.722;2023-04-03T16:07:51;15.80;;;7.60;;
6852;SDS011;3465;42.144;24.722;2023-04-03T16:10:17;15.27;;;7.40;;
6852;SDS011;3465;42.144;24.722;2023-04-03T16:12:43;16.73;;;8.20;;
6852;SDS011;3465;42.144;24.722;2023-04-03T16:15:09;14.83;;;7.60;;
6852;SDS011;3465;42.144;24.722;2023-04-03T16:17:35;22.17;;;8.70;;
6852;SDS011;3465;42.144;24.722;2023-04-03T16:20:02;15.17;;;7.70;;
6852;SDS011;3465;42.144;24.722;2023-04-03T16:22:29;15.37;;;7.93;;
6852;SDS011;3465;42.144;24.722;2023-04-03T16:24:55;15.17;;;8.63;;
6852;SDS011;3465;42.144;24.722;2023-04-03T16:27:20;17.33;;;9.33;;
6852;SDS011;3465;42.144;24.722;2023-04-03T16:29:47;18.90;;;10.90;;
6852;SDS011;3465;42.144;24.722;2023-04-03T16:32:13;18.80;;;10.67;;
6852;SDS011;3465;42.144;24.722;2023-04-03T16:34:39;19.07;;;9.93;;
6852;SDS011;3465;42.144;24.722;2023-04-03T16:37:05;17.83;;;9.07;;
6852;SDS011;3465;42.144;24.722;2023-04-03T16:39:33;19.60;;;8.20;;
6852;SDS011;3465;42.144;24.722;2023-04-03T16:41:59;16.13;;;8.03;;
6852;SDS011;3465;42.144;24.722;2023-04-03T16:44:24;15.43;;;7.87;;
6852;SDS011;3465;42.144;24.722;2023-04-03T16:46:51;15.97;;;7.27;;
6852;SDS011;3465;42.144;24.722;2023-04-03T16:49:16;14.23;;;7.37;;
6852;SDS011;3465;42.144;24.722;2023-04-03T16:51:42;17.03;;;7.30;;
6852;SDS011;3465;42.144;24.722;2023-04-03T16:54:07;23.00;;;10.03;;
6852;SDS011;3465;42.144;24.722;2023-04-03T16:56:35;13.87;;;7.10;;